Time;durP1;ratioP1;P1;durP2;ratioP2;P2;SDS_P1;SDS_P2;PMS_P1;PMS_P2;Temp;Humidity;BMP_temperature;BMP_pressure;BME280_temperature;BME280_humidity;BME280_pressure;Samples;Min_cycle;Max_cycle;Signal;HPM_P1;HPM_P2
2022/08/11 00:00:13;;;;;;;7.03;3.55;;;;;;;19.64;57.09;102133.38;5069295;28;20047;-67
2022/08/11 00:02:42;;;;;;;4.68;3.08;;;;;;;19.62;57.11;102125.50;5069094;28;20040;-67
2022/08/11 00:05:14;;;;;;;6.57;3.78;;;;;;;19.61;57.04;102129.25;5068866;28;20024;-67
2022/08/11 00:07:50;;;;;;;7.47;3.63;;;;;;;19.58;57.72;102137.81;5068805;28;20032;-67
2022/08/11 00:10:19;;;;;;;8.30;3.50;;;;;;;19.53;57.44;102124.13;5068819;28;20075;-67
2022/08/11 00:12:55;;;;;;;6.35;3.30;;;;;;;19.52;57.58;102125.19;5068856;28;20025;-67
2022/08/11 00:15:22;;;;;;;6.00;3.22;;;;;;;19.52;57.51;102124.34;5072913;28;20117;-67
2022/08/11 00:17:49;;;;;;;6.57;3.20;;;;;;;19.51;57.55;102125.41;5072850;28;20085;-67
2022/08/11 00:20:15;;;;;;;5.32;3.40;;;;;;;19.48;57.76;102122.09;5072933;28;20032;-67
2022/08/11 00:22:43;;;;;;;6.47;3.28;;;;;;;19.48;57.76;102130.22;5072762;28;20479;-67
2022/08/11 00:25:19;;;;;;;5.05;3.78;;;;;;;19.43;58.10;102126.53;5072725;28;20028;-67
2022/08/11 00:27:46;;;;;;;5.25;3.85;;;;;;;19.37;58.18;102120.16;5072750;28;20498;-67
2022/08/11 00:30:13;;;;;;;6.32;3.78;;;;;;;19.38;57.73;102119.09;5072650;28;20029;-67
2022/08/11 00:32:51;;;;;;;6.22;3.40;;;;;;;19.33;58.34;102121.63;5072879;28;20379;-67
2022/08/11 00:35:22;;;;;;;4.68;3.50;;;;;;;19.35;58.60;102124.94;5072390;28;20054;-67
2022/08/11 00:37:50;;;;;;;6.78;3.15;;;;;;;19.29;58.20;102114.22;5072528;28;20035;-67
2022/08/11 00:40:33;;;;;;;6.35;3.65;;;;;;;19.34;58.19;102119.78;5071057;28;20446;-66
2022/08/11 00:43:14;;;;;;;6.65;3.30;;;;;;;19.30;58.15;102130.19;5072275;28;20028;-66
2022/08/11 00:45:54;;;;;;;11.25;4.00;;;;;;;19.30;57.80;102127.50;5072359;28;20371;-66
2022/08/11 00:48:44;;;;;;;7.05;3.78;;;;;;;19.30;57.97;102118.56;5072219;28;20036;-66
2022/08/11 00:51:19;;;;;;;4.35;3.10;;;;;;;19.24;58.67;102123.00;5072330;28;20475;-66
2022/08/11 00:54:22;;;;;;;5.85;3.95;;;;;;;19.20;58.71;102124.47;5072333;28;20063;-66
2022/08/11 00:57:10;;;;;;;7.10;3.35;;;;;;;19.15;58.61;102124.31;5072034;28;20101;-66
2022/08/11 00:59:51;;;;;;;7.05;3.63;;;;;;;19.12;58.62;102120.19;5071948;28;20044;-66
2022/08/11 01:02:18;;;;;;;6.18;3.80;;;;;;;19.10;59.08;102114.19;5071872;28;20025;-66
2022/08/11 01:05:03;;;;;;;7.80;4.03;;;;;;;19.10;59.30;102113.34;5071927;28;20083;-66
2022/08/11 01:07:40;;;;;;;5.88;3.85;;;;;;;19.04;59.26;102115.88;5071983;28;20027;-66
2022/08/11 01:10:27;;;;;;;5.60;3.65;;;;;;;18.99;59.27;102115.75;5072311;28;20024;-66
2022/08/11 01:13:11;;;;;;;7.28;4.00;;;;;;;18.94;59.63;102120.13;5071965;28;20507;-66
2022/08/11 01:16:11;;;;;;;6.45;3.70;;;;;;;18.91;59.19;102117.88;5071806;28;20027;-66
2022/08/11 01:18:58;;;;;;;7.43;3.85;;;;;;;18.86;58.81;102115.00;5071776;28;20025;-66
2022/08/11 01:21:42;;;;;;;6.60;3.95;;;;;;;18.83;59.42;102113.56;5071482;28;20024;-65
2022/08/11 01:24:35;;;;;;;7.15;4.03;;;;;;;18.79;59.71;102121.31;5071444;28;20086;-66
2022/08/11 01:27:38;;;;;;;8.35;3.67;;;;;;;18.76;59.57;102120.94;5071371;28;20387;-66
2022/08/11 01:30:38;;;;;;;5.68;4.05;;;;;;;18.68;60.13;102126.56;5071517;28;20064;-66
2022/08/11 01:33:22;;;;;;;6.68;3.80;;;;;;;18.63;60.05;102132.63;5071516;28;20013;-66
2022/08/11 01:35:56;;;;;;;6.47;3.97;;;;;;;18.61;60.21;102132.84;5071426;28;20497;-66
2022/08/11 01:38:37;;;;;;;6.40;3.92;;;;;;;18.56;59.96;102126.44;5071359;28;20087;-66
2022/08/11 01:44:50;;;;;;;4.80;3.13;;;;;;;18.52;60.49;102128.75;5071221;28;20123;-66
2022/08/11 01:47:52;;;;;;;8.05;4.35;;;;;;;18.48;60.35;102127.53;5071246;28;20038;-66
2022/08/11 01:50:56;;;;;;;4.77;3.67;;;;;;;18.44;60.76;102131.69;5071199;28;20510;-70
2022/08/11 01:53:30;;;;;;;9.45;4.38;;;;;;;18.40;60.99;102125.91;5070439;28;20051;-70
2022/08/11 01:56:08;;;;;;;6.97;4.35;;;;;;;18.39;61.21;102118.88;5071084;28;20032;-70
2022/08/11 01:58:52;;;;;;;7.20;3.97;;;;;;;18.38;61.02;102125.31;5071310;28;20460;-70
2022/08/11 02:01:43;;;;;;;7.38;3.97;;;;;;;18.39;60.97;102123.41;5070912;28;20119;-70
2022/08/11 02:04:33;;;;;;;8.85;3.83;;;;;;;18.35;61.05;102127.63;5070944;28;20090;-70
2022/08/11 02:07:10;;;;;;;7.97;3.72;;;;;;;18.32;61.44;102122.66;5070901;28;20048;-70
2022/08/11 02:13:13;;;;;;;8.35;3.78;;;;;;;18.21;61.99;102121.47;5070989;28;20085;-70
2022/08/11 02:15:46;;;;;;;5.25;3.47;;;;;;;18.19;62.93;102120.84;5070758;28;20432;-70
2022/08/11 02:18:23;;;;;;;7.70;4.25;;;;;;;18.17;62.66;102123.75;5070811;28;20052;-70
2022/08/11 02:24:02;;;;;;;6.60;4.38;;;;;;;18.09;66.25;102124.00;5070508;28;20502;-70
2022/08/11 02:26:34;;;;;;;8.38;4.22;;;;;;;18.04;67.11;102125.72;5070695;28;20047;-70
2022/08/11 02:29:22;;;;;;;7.38;4.68;;;;;;;17.97;69.44;102131.13;5070412;28;20028;-70
2022/08/11 02:34:54;;;;;;;7.30;5.15;;;;;;;17.67;69.76;102126.22;5070078;28;20067;-68
2022/08/11 02:37:32;;;;;;;7.75;3.92;;;;;;;17.64;69.03;102129.34;5069549;28;20036;-69
2022/08/11 02:39:57;;;;;;;9.45;4.88;;;;;;;17.58;71.65;102116.72;5070035;28;20059;-69
2022/08/11 02:42:36;;;;;;;6.80;4.20;;;;;;;17.51;72.15;102121.31;5070147;28;20028;-69
2022/08/11 02:45:11;;;;;;;6.72;3.97;;;;;;;17.42;70.83;102115.31;5070046;28;20267;-69
2022/08/11 02:51:06;;;;;;;5.65;4.15;;;;;;;17.39;72.03;102125.69;5070252;28;20101;-69
2022/08/11 02:53:44;;;;;;;9.50;4.05;;;;;;;17.33;71.64;102111.19;5069987;28;20487;-69
2022/08/11 02:56:13;;;;;;;5.75;4.03;;;;;;;17.33;72.60;102119.28;5070004;28;20074;-69
2022/08/11 03:02:31;;;;;;;5.78;3.92;;;;;;;17.24;70.47;102115.97;5069781;28;20094;-69
2022/08/11 03:04:57;;;;;;;10.35;4.55;;;;;;;17.19;71.50;102121.16;5066547;28;20036;-69
2022/08/11 03:07:37;;;;;;;7.60;4.40;;;;;;;17.15;71.68;102117.22;5069658;28;20483;-69
2022/08/11 03:10:24;;;;;;;8.75;4.57;;;;;;;17.11;71.86;102121.38;5069272;28;20825;-69
2022/08/11 03:19:02;;;;;;;6.28;4.25;;;;;;;16.83;75.35;102125.13;5069792;28;20454;-69
2022/08/11 03:21:38;;;;;;;7.72;3.92;;;;;;;16.67;73.99;102122.81;5069401;28;20502;-70
2022/08/11 03:24:28;;;;;;;7.57;4.72;;;;;;;16.60;74.61;102125.47;5069366;28;20028;-70
2022/08/11 03:27:14;;;;;;;6.70;4.30;;;;;;;16.60;76.56;102122.78;5069341;28;20063;-69
2022/08/11 03:30:01;;;;;;;10.63;5.35;;;;;;;16.62;75.73;102125.28;5069326;28;20036;-69
2022/08/11 03:32:31;;;;;;;8.90;4.68;;;;;;;16.59;74.47;102115.75;5069301;28;20032;-69
2022/08/11 03:35:02;;;;;;;11.70;5.70;;;;;;;16.58;72.86;102118.63;5068928;28;20051;-69
2022/08/11 03:37:51;;;;;;;7.93;4.55;;;;;;;16.66;72.35;102123.81;5069181;28;20059;-69
2022/08/11 03:43:38;;;;;;;6.85;4.90;;;;;;;16.77;75.05;102122.41;5069108;28;20055;-69
2022/08/11 03:46:13;;;;;;;10.55;5.38;;;;;;;16.71;74.06;102115.94;5069098;28;20036;-70
2022/08/11 03:49:00;;;;;;;8.55;5.93;;;;;;;16.71;74.33;102124.03;5068064;28;20395;-70
2022/08/11 03:51:44;;;;;;;8.32;4.93;;;;;;;16.66;75.25;102118.44;5068715;28;20360;-68
2022/08/11 03:54:28;;;;;;;11.10;5.00;;;;;;;16.64;73.62;102115.13;5069074;28;20123;-69
2022/08/11 03:57:14;;;;;;;7.20;4.63;;;;;;;16.62;75.18;102119.91;5068720;28;20029;-68
2022/08/11 04:00:00;;;;;;;6.93;4.70;;;;;;;16.59;75.31;102121.13;5068935;28;20108;-68
2022/08/11 04:03:00;;;;;;;8.07;4.60;;;;;;;16.56;74.16;102121.56;5068674;28;20024;-69
2022/08/11 04:06:03;;;;;;;9.88;4.85;;;;;;;16.52;73.88;102114.06;5068767;28;20039;-69
2022/08/11 04:08:52;;;;;;;10.90;5.70;;;;;;;16.47;76.24;102105.78;5068717;28;20093;-68
2022/08/11 04:11:33;;;;;;;7.93;5.15;;;;;;;16.40;77.28;102111.16;5050714;28;20043;-68
2022/08/11 04:17:53;;;;;;;10.80;4.75;;;;;;;16.30;76.55;102108.03;5068757;28;20043;-68
2022/08/11 04:20:42;;;;;;;6.55;4.60;;;;;;;16.22;77.62;102111.75;5031073;28;20495;-68
2022/08/11 04:23:42;;;;;;;14.80;5.32;;;;;;;16.16;77.03;102110.66;5068266;28;20502;-68
2022/08/11 04:26:42;;;;;;;6.72;4.50;;;;;;;16.11;76.51;102109.63;5068648;28;20083;-68
2022/08/11 04:29:23;;;;;;;11.35;5.28;;;;;;;16.07;78.26;102114.59;5069162;28;20036;-68
2022/08/11 04:32:14;;;;;;;9.80;4.68;;;;;;;16.08;77.10;102112.72;5068598;28;20027;-68
2022/08/11 04:34:53;;;;;;;9.00;5.10;;;;;;;16.09;78.16;102115.22;5068138;28;20059;-68
2022/08/11 04:37:33;;;;;;;9.95;5.10;;;;;;;16.10;78.44;102113.38;5068339;28;20441;-68
2022/08/11 04:40:20;;;;;;;9.57;5.35;;;;;;;16.03;77.42;102112.50;5068477;28;20680;-68
2022/08/11 04:43:22;;;;;;;9.90;5.43;;;;;;;16.03;78.24;102109.81;5068146;28;20030;-68
2022/08/11 04:46:22;;;;;;;11.88;5.15;;;;;;;16.05;78.15;102113.13;5068481;28;20423;-68
2022/08/11 05:07:37;;;;;;;9.45;6.07;;;;;;;17.13;74.03;102121.16;5072098;28;20143;-69
2022/08/11 05:10:17;;;;;;;11.65;6.00;;;;;;;17.15;74.05;102119.91;5071924;28;20218;-69
2022/08/11 05:12:55;;;;;;;8.85;5.38;;;;;;;17.33;73.73;102121.97;5071773;28;20111;-69
2022/08/11 05:35:46;;;;;;;15.93;8.65;;;;;;;17.62;72.83;102123.34;5071382;28;19965;-69
2022/08/11 05:57:59;;;;;;;13.02;6.65;;;;;;;18.32;70.93;102134.28;5071253;28;20102;-68
2022/08/11 06:00:25;;;;;;;;;;;;;;;18.43;69.33;102130.06;5071411;28;20131;-68
2022/08/11 06:02:56;;;;;;;13.68;8.07;;;;;;;18.47;70.64;102123.19;5070858;28;20022;-68
2022/08/11 06:05:22;;;;;;;9.85;6.55;;;;;;;18.56;67.97;102129.16;5071025;28;20119;-68
2022/08/11 06:07:48;;;;;;;15.07;7.68;;;;;;;18.61;67.59;102129.31;5070788;28;20632;-68
2022/08/11 06:10:29;;;;;;;10.73;6.40;;;;;;;18.64;67.97;102128.88;5070273;28;20031;-68
2022/08/11 06:12:57;;;;;;;11.20;6.00;;;;;;;18.67;68.04;102133.84;5070443;28;20342;-71
2022/08/11 06:15:24;;;;;;;14.07;7.72;;;;;;;18.64;67.99;102119.94;5070995;28;20032;-71
2022/08/11 06:17:50;;;;;;;13.80;6.55;;;;;;;18.73;68.79;102132.13;5069405;28;20408;-71
2022/08/11 06:20:18;;;;;;;8.60;6.43;;;;;;;18.80;68.97;102141.06;5070864;28;20078;-71
2022/08/11 06:22:47;;;;;;;12.73;6.63;;;;;;;18.82;68.64;102139.78;5070809;28;20547;-72
2022/08/11 06:25:14;;;;;;;14.82;6.38;;;;;;;18.83;68.49;102130.63;5070645;28;20028;-71
2022/08/11 06:27:43;;;;;;;12.10;6.90;;;;;;;18.93;67.72;102129.31;5070800;28;20036;-71
2022/08/11 06:30:15;;;;;;;13.75;6.45;;;;;;;18.99;66.97;102141.94;5070693;28;20395;-71
2022/08/11 06:32:44;;;;;;;12.68;6.32;;;;;;;19.05;68.03;102139.19;5070594;28;20033;-71
2022/08/11 06:35:24;;;;;;;11.05;7.15;;;;;;;19.09;66.63;102134.16;5070389;28;20094;-71
2022/08/11 06:38:11;;;;;;;10.63;6.28;;;;;;;19.17;66.71;102133.84;5070573;28;20026;-71
2022/08/11 06:41:29;;;;;;;10.52;5.93;;;;;;;19.19;66.31;102128.25;5070578;28;20032;-71
2022/08/11 06:44:04;;;;;;;14.60;7.30;;;;;;;19.30;66.07;102132.09;5070060;28;20049;-69
2022/08/11 06:46:36;;;;;;;12.05;7.25;;;;;;;19.36;64.97;102136.59;5070204;28;20776;-71
2022/08/11 06:49:03;;;;;;;11.10;6.18;;;;;;;19.34;66.38;102122.47;5070153;28;20031;-72
2022/08/11 06:51:29;;;;;;;12.15;7.43;;;;;;;19.52;66.21;102132.47;5070304;28;20495;-71
2022/08/11 06:53:58;;;;;;;9.35;6.55;;;;;;;19.60;66.12;102137.59;5070186;28;20479;-71
2022/08/11 07:02:29;;;;;;;15.68;6.60;;;;;;;19.84;65.32;102135.91;5065220;28;20044;-74
2022/08/11 07:05:20;;;;;;;16.23;7.22;;;;;;;19.94;65.14;102144.31;5065797;28;20051;-67
2022/08/11 07:16:43;;;;;;;9.73;5.95;;;;;;;20.25;63.47;102140.56;5069483;28;20112;-72
2022/08/11 07:30:27;;;;;;;10.20;6.50;;;;;;;20.62;61.53;102135.06;5069547;28;20703;-71
2022/08/11 07:32:56;;;;;;;11.90;6.72;;;;;;;20.73;60.77;102141.56;5069472;28;20025;-72
2022/08/11 07:35:44;;;;;;;10.30;6.10;;;;;;;20.84;61.15;102142.63;5069198;28;20071;-72
2022/08/11 07:38:20;;;;;;;13.07;7.28;;;;;;;20.90;60.73;102136.25;5069344;28;20035;-71
2022/08/11 07:40:46;;;;;;;10.45;6.30;;;;;;;21.01;60.12;102139.00;5069079;28;20029;-71
2022/08/11 07:43:13;;;;;;;12.27;7.00;;;;;;;21.12;59.96;102142.78;5069258;28;20036;-70
2022/08/11 07:54:04;;;;;;;9.10;5.13;;;;;;;21.54;58.55;102139.13;5069237;28;20074;-71
2022/08/11 07:56:35;;;;;;;12.70;6.85;;;;;;;21.64;58.00;102142.03;5069143;28;20171;-72
2022/08/11 08:18:23;;;;;;;9.90;5.30;;;;;;;28.56;39.96;102129.38;5069313;28;20079;-71
2022/08/11 08:20:49;;;;;;;12.77;4.32;;;;;;;30.41;36.67;102137.09;5069111;28;20028;-70
2022/08/11 08:23:16;;;;;;;6.20;4.30;;;;;;;31.78;33.82;102134.81;5069058;28;20086;-70
2022/08/11 08:25:44;;;;;;;10.38;4.85;;;;;;;32.78;31.54;102131.06;5068962;28;20070;-70
2022/08/11 08:28:13;;;;;;;9.35;4.30;;;;;;;33.52;31.00;102138.72;5068756;28;20081;-71
2022/08/11 08:30:54;;;;;;;7.10;4.05;;;;;;;34.30;27.99;102132.47;5068852;28;20380;-71
2022/08/11 08:33:30;;;;;;;8.60;4.65;;;;;;;35.07;30.03;102125.13;5068943;28;20028;-71
2022/08/11 08:36:10;;;;;;;8.80;4.13;;;;;;;35.29;27.38;102140.69;5072474;28;20095;-71
2022/08/11 08:38:53;;;;;;;7.55;4.13;;;;;;;35.85;29.41;102121.91;5072855;28;20044;-71
2022/08/11 08:41:24;;;;;;;13.40;4.78;;;;;;;35.45;26.64;102129.81;5072867;28;20039;-71
2022/08/11 08:43:52;;;;;;;11.20;4.47;;;;;;;35.70;26.38;102131.66;5072685;28;20060;-71
2022/08/11 08:46:26;;;;;;;7.07;3.90;;;;;;;36.27;27.35;102126.66;5072743;28;20043;-71
2022/08/11 08:48:53;;;;;;;4.93;4.00;;;;;;;36.37;24.44;102126.22;5072580;28;20082;-71
2022/08/11 08:51:35;;;;;;;8.80;4.60;;;;;;;36.36;24.12;102133.72;5072641;28;20135;-72
2022/08/11 08:54:07;;;;;;;6.65;3.85;;;;;;;36.40;25.12;102126.34;5072634;28;20086;-71
2022/08/11 08:56:37;;;;;;;10.65;4.38;;;;;;;34.80;25.66;102127.19;5072438;28;20044;-71
2022/08/11 08:59:03;;;;;;;7.35;4.15;;;;;;;32.81;27.99;102119.41;5072244;28;20853;-71
2022/08/11 09:01:35;;;;;;;6.95;4.55;;;;;;;31.20;32.19;102108.69;5071217;28;20044;-71
2022/08/11 09:04:05;;;;;;;8.45;4.13;;;;;;;30.08;32.83;102134.28;5072150;28;20099;-71
2022/08/11 09:06:31;;;;;;;7.93;3.83;;;;;;;29.01;34.30;102130.06;5072231;28;20064;-71
2022/08/11 09:08:58;;;;;;;7.72;4.03;;;;;;;28.22;36.07;102119.19;5072143;28;20059;-71
2022/08/11 09:14:08;;;;;;;6.55;4.28;;;;;;;27.28;38.27;102128.09;5072482;28;20035;-71
2022/08/11 09:16:38;;;;;;;8.00;4.53;;;;;;;27.03;38.23;102119.91;5072192;28;20040;-71
2022/08/11 09:19:04;;;;;;;5.32;3.63;;;;;;;26.80;37.60;102115.81;5072059;28;20032;-71
2022/08/11 09:21:31;;;;;;;6.15;4.97;;;;;;;26.61;38.35;102123.78;5072061;28;20024;-71
2022/08/11 09:27:07;;;;;;;11.30;5.10;;;;;;;26.40;39.53;102126.47;5049303;28;20041;-71
2022/08/11 09:29:33;;;;;;;6.07;4.22;;;;;;;26.41;41.21;102121.84;5049441;28;20044;-71
2022/08/11 09:31:59;;;;;;;7.07;4.82;;;;;;;26.43;41.48;102119.63;5060480;28;20040;-71
2022/08/11 09:34:26;;;;;;;6.43;4.65;;;;;;;26.46;40.63;102116.34;5071611;28;20048;-71
2022/08/11 09:44:45;;;;;;;7.93;4.53;;;;;;;26.30;40.86;102106.50;5071961;28;20101;-71
2022/08/11 09:45:14;;;;;;;17.70;5.28;;;;;;;26.28;40.85;102103.22;5070913;28;20055;-71
2022/08/11 09:47:42;;;;;;;7.72;3.83;;;;;;;26.40;41.46;102107.31;5071028;28;20129;-71
2022/08/11 09:50:08;;;;;;;7.28;4.32;;;;;;;26.54;41.29;102101.34;5071587;28;20036;-71
2022/08/11 09:52:37;;;;;;;11.15;4.68;;;;;;;26.56;40.46;102110.91;5071540;28;20055;-71
2022/08/11 09:55:09;;;;;;;7.90;4.47;;;;;;;26.59;41.81;102102.19;5071490;28;20028;-71
2022/08/11 10:00:31;;;;;;;12.38;4.53;;;;;;;26.81;40.88;102098.31;5071355;28;20059;-71
2022/08/11 10:03:01;;;;;;;6.72;4.15;;;;;;;26.86;40.00;102098.31;5071330;28;20064;-71
2022/08/11 10:08:16;;;;;;;6.03;4.82;;;;;;;26.96;36.97;102098.31;5071161;28;20050;-71
2022/08/11 10:10:42;;;;;;;6.68;4.20;;;;;;;26.96;38.49;102092.81;5071089;28;20063;-72
2022/08/11 10:13:15;;;;;;;6.88;4.75;;;;;;;27.04;39.48;102096.91;5071046;28;20024;-71
2022/08/11 10:15:44;;;;;;;6.45;4.80;;;;;;;27.07;38.64;102085.41;5071090;28;20036;-71
2022/08/11 10:21:01;;;;;;;9.57;4.93;;;;;;;27.20;37.25;102084.03;5071151;28;20043;-71
2022/08/11 10:33:58;;;;;;;8.18;4.18;;;;;;;27.51;38.23;102087.47;5070975;28;20052;-71
2022/08/11 10:34:37;;;;;;;9.52;5.07;;;;;;;27.50;37.66;102078.41;5070767;28;20423;-71
2022/08/11 10:37:02;;;;;;;6.10;4.72;;;;;;;27.49;36.93;102065.00;5070665;28;20032;-71
2022/08/11 10:39:28;;;;;;;4.53;4.10;;;;;;;27.58;37.03;102073.44;5070536;28;20489;-71
2022/08/11 10:44:49;;;;;;;7.20;4.03;;;;;;;27.76;38.24;102073.63;5070814;28;20051;-71
2022/08/11 10:47:33;;;;;;;9.25;4.72;;;;;;;27.84;36.31;102072.22;5070551;28;20115;-72
2022/08/11 11:01:07;;;;;;;5.03;4.05;;;;;;;28.19;35.58;102060.22;5070376;28;20149;-71
2022/08/11 11:03:35;;;;;;;6.40;4.22;;;;;;;28.20;35.07;102055.53;5069974;28;20036;-71
2022/08/11 11:06:08;;;;;;;7.47;4.20;;;;;;;28.27;36.37;102061.53;5068790;28;20059;-71
2022/08/11 11:08:53;;;;;;;6.22;4.13;;;;;;;28.30;34.89;102051.91;5068727;28;20052;-71
2022/08/11 11:11:21;;;;;;;7.03;4.20;;;;;;;28.38;35.33;102052.09;5069975;28;20551;-71
2022/08/11 11:19:19;;;;;;;6.13;3.50;;;;;;;28.66;33.79;102046.09;5069837;28;20502;-71
2022/08/11 11:21:47;;;;;;;5.45;3.33;;;;;;;28.72;30.79;102043.00;5069622;28;20024;-70
2022/08/11 11:24:40;;;;;;;6.43;3.30;;;;;;;28.80;33.53;102044.31;5069670;28;20024;-71
2022/08/11 11:27:20;;;;;;;8.43;4.03;;;;;;;28.90;32.95;102035.13;5063879;28;20032;-71
2022/08/11 11:30:04;;;;;;;3.85;3.40;;;;;;;28.95;32.49;102038.66;5065358;28;20355;-69
2022/08/11 11:32:47;;;;;;;5.07;3.53;;;;;;;28.92;32.35;102036.47;5065490;28;20024;-69
2022/08/11 11:36:09;;;;;;;3.80;3.10;;;;;;;29.01;31.96;102042.16;5065273;28;20046;-68
2022/08/11 11:38:35;;;;;;;;;;;;;;;29.13;34.47;102026.06;5022638;28;20473;-71
2022/08/11 11:43:45;;;;;;;5.38;3.72;;;;;;;29.11;31.89;102028.31;5046850;28;20502;-70
2022/08/11 11:46:12;;;;;;;9.23;4.53;;;;;;;29.12;30.92;102031.88;5064721;28;20017;-69
2022/08/11 11:48:40;;;;;;;8.07;3.80;;;;;;;29.18;31.29;102026.00;5065105;28;20028;-71
2022/08/11 11:51:05;;;;;;;6.95;3.63;;;;;;;29.28;29.74;102020.38;5065187;28;20025;-71
2022/08/11 11:53:32;;;;;;;4.35;3.95;;;;;;;29.25;31.10;102026.47;5064858;28;20047;-71
2022/08/11 11:55:58;;;;;;;4.68;3.60;;;;;;;29.29;31.21;102021.19;5065199;28;20036;-70
2022/08/11 12:01:15;;;;;;;5.85;3.83;;;;;;;29.16;30.62;102016.44;5065175;28;20158;-70
2022/08/11 12:03:44;;;;;;;3.88;3.35;;;;;;;29.07;30.71;102007.22;5064394;28;20032;-70
2022/08/11 12:06:12;;;;;;;4.97;3.13;;;;;;;29.08;30.75;102014.34;5064718;28;20035;-69
2022/08/11 12:08:39;;;;;;;8.73;3.85;;;;;;;29.11;31.95;102013.75;5064394;28;20040;-68
2022/08/11 12:13:55;;;;;;;6.63;3.95;;;;;;;29.27;30.88;101998.72;5064750;28;20036;-68
2022/08/11 12:16:22;;;;;;;3.70;3.30;;;;;;;29.31;31.04;102002.50;5063371;28;20028;-68
2022/08/11 12:18:50;;;;;;;7.00;3.65;;;;;;;29.35;30.48;101998.06;5064733;28;20392;-71
2022/08/11 12:21:16;;;;;;;6.03;3.70;;;;;;;29.43;30.35;101991.88;5064987;28;20360;-69
2022/08/11 12:29:27;;;;;;;5.38;3.75;;;;;;;29.68;29.85;101982.50;5052183;28;20032;-68
2022/08/11 12:31:54;;;;;;;3.80;3.35;;;;;;;29.65;30.52;101974.81;5064706;28;20332;-69
2022/08/11 12:34:20;;;;;;;7.00;3.60;;;;;;;29.63;30.21;101974.28;5064442;28;20090;-68
2022/08/11 12:36:53;;;;;;;7.38;3.35;;;;;;;29.61;28.97;101976.50;5064661;28;20021;-68
2022/08/11 12:45:26;;;;;;;7.90;3.70;;;;;;;29.57;28.29;101975.47;5065333;28;20028;-67
2022/08/11 12:53:26;;;;;;;6.07;3.88;;;;;;;29.69;28.57;101959.34;5068967;28;20074;-67
2022/08/11 12:58:49;;;;;;;6.55;3.60;;;;;;;29.78;27.76;101953.19;5069088;28;20085;-67
2022/08/11 13:06:45;;;;;;;5.00;3.22;;;;;;;29.78;27.95;101950.44;5068934;28;20035;-67
2022/08/11 13:09:11;;;;;;;5.47;3.20;;;;;;;29.76;28.72;101945.22;5068700;28;20032;-67
2022/08/11 13:14:26;;;;;;;6.90;3.50;;;;;;;29.84;28.74;101941.81;5068867;28;20129;-67
2022/08/11 13:19:36;;;;;;;6.00;3.15;;;;;;;29.88;29.38;101929.06;5068718;28;20044;-67
2022/08/11 13:22:05;;;;;;;5.50;3.50;;;;;;;29.96;31.93;101927.56;5071879;28;20028;-67
2022/08/11 13:24:33;;;;;;;5.07;3.60;;;;;;;30.00;29.26;101914.84;5071982;28;20026;-67
2022/08/11 13:26:59;;;;;;;3.00;2.80;;;;;;;30.00;28.19;101922.25;5072002;28;20094;-67
2022/08/11 13:29:27;;;;;;;3.92;3.53;;;;;;;30.05;26.47;101930.41;5072037;28;20038;-67
2022/08/11 13:31:55;;;;;;;4.13;2.92;;;;;;;30.07;27.41;101912.50;5071986;28;20033;-67
2022/08/11 13:34:22;;;;;;;6.45;3.38;;;;;;;30.10;27.07;101916.56;5071637;28;20056;-67
2022/08/11 13:36:51;;;;;;;3.67;3.33;;;;;;;30.13;26.41;101911.28;5071470;28;20024;-67
2022/08/11 13:39:17;;;;;;;4.55;3.03;;;;;;;30.13;27.91;101913.25;5072035;28;20044;-67
2022/08/11 13:41:45;;;;;;;9.85;3.95;;;;;;;30.12;28.00;101915.16;5071797;28;20479;-67
2022/08/11 13:44:14;;;;;;;4.88;3.90;;;;;;;30.10;26.91;101916.56;5071661;28;20032;-67
2022/08/11 13:46:42;;;;;;;7.00;4.22;;;;;;;30.07;28.92;101906.97;5071717;28;20024;-67
2022/08/11 13:49:08;;;;;;;6.55;3.30;;;;;;;30.06;28.87;101902.63;5071428;28;20040;-67
2022/08/11 13:51:34;;;;;;;7.07;3.88;;;;;;;30.07;28.60;101898.72;5071564;28;20021;-67
2022/08/11 13:54:01;;;;;;;5.25;3.25;;;;;;;30.11;28.40;101901.72;5071586;28;20075;-67
2022/08/11 13:56:28;;;;;;;8.00;4.32;;;;;;;30.05;27.22;101901.00;5071518;28;20024;-67
2022/08/11 13:58:55;;;;;;;3.80;3.42;;;;;;;30.06;27.72;101899.06;5071143;28;20039;-67
2022/08/11 14:01:25;;;;;;;7.05;3.30;;;;;;;30.05;27.50;101889.16;5071228;28;20062;-65
2022/08/11 14:03:52;;;;;;;4.63;3.60;;;;;;;30.08;27.29;101900.38;5069854;28;20070;-63
2022/08/11 14:06:19;;;;;;;3.70;3.33;;;;;;;30.05;27.69;101895.50;5071203;28;20411;-69
2022/08/11 14:08:45;;;;;;;6.15;3.50;;;;;;;30.04;28.24;101890.28;5071165;28;20044;-69
2022/08/11 14:13:58;;;;;;;8.95;3.47;;;;;;;30.14;26.86;101884.59;5070958;28;20079;-68
2022/08/11 14:16:35;;;;;;;6.70;3.60;;;;;;;30.13;26.20;101882.97;5070666;28;20586;-71
2022/08/11 14:19:04;;;;;;;4.32;3.28;;;;;;;30.13;26.10;101880.22;5070817;28;20403;-70
2022/08/11 14:24:20;;;;;;;5.15;3.38;;;;;;;30.09;26.72;101885.50;5070632;28;20039;-70
2022/08/11 14:26:47;;;;;;;4.45;3.85;;;;;;;30.15;27.49;101880.69;5070559;28;20040;-70
2022/08/11 14:29:15;;;;;;;5.28;3.85;;;;;;;30.20;26.12;101879.78;5070641;28;20043;-70
2022/08/11 14:31:54;;;;;;;3.75;3.40;;;;;;;30.26;26.54;101878.59;5069916;28;20025;-71
2022/08/11 14:34:22;;;;;;;5.03;4.30;;;;;;;30.40;26.72;101875.88;5070389;28;20100;-70
2022/08/11 14:36:55;;;;;;;6.57;3.25;;;;;;;30.48;26.28;101872.41;5070551;28;20032;-70
2022/08/11 14:39:24;;;;;;;8.75;3.38;;;;;;;30.44;25.59;101872.19;5070589;28;20379;-70
2022/08/11 14:47:26;;;;;;;5.45;3.00;;;;;;;30.12;25.89;101862.06;5070687;28;20035;-70
2022/08/11 14:49:54;;;;;;;4.65;3.00;;;;;;;30.13;27.65;101867.28;5070414;28;20024;-70
2022/08/11 14:52:20;;;;;;;5.25;3.47;;;;;;;30.09;28.92;101862.66;5070298;28;20031;-71
2022/08/11 14:57:41;;;;;;;5.68;3.88;;;;;;;30.10;28.78;101858.78;5053724;28;20044;-71
2022/08/11 15:00:09;;;;;;;5.10;4.00;;;;;;;30.11;28.47;101863.19;5070059;28;20381;-71
2022/08/11 15:05:25;;;;;;;6.65;3.20;;;;;;;30.07;28.00;101851.97;5070283;28;20039;-70
2022/08/11 15:07:53;;;;;;;4.20;3.60;;;;;;;30.13;28.02;101848.00;5070022;28;20533;-70
2022/08/11 15:10:19;;;;;;;3.67;2.90;;;;;;;30.19;28.02;101848.72;5069979;28;20025;-70
2022/08/11 15:12:46;;;;;;;7.43;3.40;;;;;;;30.23;28.99;101835.16;5069747;28;20166;-70
2022/08/11 15:18:09;;;;;;;6.18;3.15;;;;;;;30.14;27.91;101833.13;5070108;28;20498;-70
2022/08/11 15:26:07;;;;;;;5.35;3.25;;;;;;;30.19;26.52;101825.88;5070066;28;20145;-70
2022/08/11 15:48:11;;;;;;;6.53;3.20;;;;;;;30.28;26.64;101808.38;5069422;28;20121;-70
2022/08/11 15:50:44;;;;;;;6.97;3.13;;;;;;;30.31;27.24;101805.03;5069286;28;20039;-71
2022/08/11 15:53:29;;;;;;;4.80;3.17;;;;;;;30.29;27.63;101807.25;5069305;28;20041;-71
2022/08/11 15:55:56;;;;;;;3.10;2.80;;;;;;;30.26;26.63;101810.63;5069252;28;20476;-70
2022/08/11 16:04:11;;;;;;;3.70;3.00;;;;;;;30.28;26.39;101799.28;5069228;28;20081;-71
2022/08/11 16:06:49;;;;;;;4.97;3.25;;;;;;;30.24;26.41;101799.09;5069126;28;20032;-70
2022/08/11 16:09:19;;;;;;;3.60;3.15;;;;;;;30.21;28.39;101799.69;5069249;28;20034;-70
2022/08/11 16:11:45;;;;;;;5.78;3.33;;;;;;;30.18;26.86;101796.72;5069206;28;20021;-71
2022/08/11 16:16:58;;;;;;;4.47;2.85;;;;;;;30.15;26.66;101798.97;5069404;28;20352;-68
2022/08/11 16:19:27;;;;;;;7.38;3.45;;;;;;;30.14;26.75;101791.03;5068991;28;20033;-67
2022/08/11 16:21:56;;;;;;;4.30;2.85;;;;;;;30.06;27.96;101778.81;5068992;28;20028;-67
2022/08/11 16:24:23;;;;;;;4.03;2.92;;;;;;;30.02;28.45;101782.47;5069109;28;20044;-67
2022/08/11 16:26:51;;;;;;;3.22;2.92;;;;;;;29.96;27.46;101787.25;5069032;28;20031;-67
2022/08/11 16:29:18;;;;;;;5.22;2.80;;;;;;;29.86;28.37;101773.69;5069061;28;20029;-67
2022/08/11 16:32:15;;;;;;;9.45;3.30;;;;;;;29.80;27.93;101780.44;5068954;28;20166;-67
2022/08/11 16:40:04;;;;;;;6.05;3.00;;;;;;;29.77;26.86;101776.34;5069040;28;20048;-68
2022/08/11 16:48:01;;;;;;;4.68;3.55;;;;;;;29.68;29.09;101775.41;5068904;28;20514;-67
2022/08/11 16:50:28;;;;;;;5.65;2.85;;;;;;;29.61;28.06;101770.28;5068566;28;20048;-67
2022/08/11 16:52:54;;;;;;;4.20;2.47;;;;;;;29.59;29.01;101775.28;5068710;28;20496;-68